Weather History for Viroqua, WI

Change the Weather History Date:

Sunday, September 30, 2012

  Actual Average (KLSE) Record (KLSE)
Temperature  
Mean Temperature 56 °F 56 °F  
Max Temperature 69 °F 67 °F 87 °F (1996)
Min Temperature 44 °F 46 °F 24 °F (1899)
Degree Days  
Heating Degree Days 8 9  
Month to date heating degree days 139  
Since 1 July heating degree days 160  
Cooling Degree Days 0 1  
Month to date cooling degree days 74  
Year to date cooling degree days 774  
Growing Degree Days 6 (Base 50)    
Moisture  
Dew Point 40 °F    
Average Humidity 58    
Maximum Humidity 87    
Minimum Humidity 31    
Precipitation  
Precipitation 0.00 in 0.09 in 1.43 in (1925)
Month to date precipitation 3.56  
Year to date precipitation 27.52  
Snow  
Snow 0.00 in 0.00 in 0.00 in (2002)
Month to date snowfall 0.0  
Since 1 July snowfall 0.0  
Snow Depth -    
Sea Level Pressure  
Sea Level Pressure 29.98 in    
Wind  
Wind Speed 4 mph (ESE)    
Max Wind Speed 9 mph    
Max Gust Speed -    
Visibility 10 miles    
Events      
T = Trace of Precipitation, MM = Missing Value Source: NWS Daily Summary

Daily Weather History Graph

Daily Weather History Graph

Search for Another Location

Airport:

Trip Planner

Search our weather history database for the weather conditions in past years. The results will help you decide how hot, cold, wet, or windy it might be!

Date:

Astronomy

Sep. 30, 2012 Rise Set
Actual Time 7:00 AM CDT 6:45 PM CDT
Civil Twilight 6:31 AM CDT 7:14 PM CDT
Nautical Twilight 5:58 AM CDT 7:47 PM CDT
Astronomical Twilight 5:24 AM CDT 8:20 PM CDT
Moon 6:46 PM CDT (9/30) 7:34 AM CDT (9/30)
Length of Visible Light 12h 42m
Length of Day
11h 44m
Full, 100% of the Moon is Illuminated
Sep 30
Full
Oct 8
Last Quarter
Oct 15
New
Oct 21
First Quarter
Oct 29
Full

Hourly Weather History & Observations

Time (CDT) Temp. Windchill Dew Point Humidity Pressure Visibility Wind Dir Wind Speed Gust Speed Precip Events Conditions
12:15 AM 51.8 °F - 37.4 °F 58% 30.02 in 10.0 mi Calm Calm - N/A   Clear
1:15 AM 51.8 °F - 37.4 °F 58% 30.01 in 10.0 mi East 5.8 mph - N/A   Clear
1:35 AM 50.0 °F - 39.2 °F 66% 30.02 in 10.0 mi ESE 6.9 mph - N/A   Clear
1:55 AM 50.0 °F - 41.0 °F 71% 30.02 in 10.0 mi ESE 5.8 mph - N/A   Clear
2:15 AM 50.0 °F - 41.0 °F 71% 30.01 in 10.0 mi SE 5.8 mph - N/A   Clear
2:35 AM 50.0 °F - 41.0 °F 71% 30.00 in 10.0 mi SE 5.8 mph - N/A   Clear
2:55 AM 48.2 °F - 41.0 °F 76% 30.00 in 10.0 mi ESE 5.8 mph - N/A   Clear
3:15 AM 46.4 °F 44.3 °F 41.0 °F 81% 30.00 in 10.0 mi ESE 4.6 mph - N/A   Clear
3:35 AM 46.4 °F 44.3 °F 41.0 °F 81% 30.00 in 10.0 mi ESE 4.6 mph - N/A   Clear
3:55 AM 46.4 °F 42.9 °F 41.0 °F 81% 30.00 in 10.0 mi East 6.9 mph - N/A   Clear
4:15 AM 46.4 °F 44.3 °F 41.0 °F 81% 30.01 in 10.0 mi ESE 4.6 mph - N/A   Clear
4:35 AM 46.4 °F 43.5 °F 41.0 °F 81% 30.01 in 10.0 mi ESE 5.8 mph - N/A   Clear
4:55 AM 46.4 °F 43.5 °F 41.0 °F 81% 30.00 in 10.0 mi ESE 5.8 mph - N/A   Clear
5:15 AM 46.4 °F 44.3 °F 41.0 °F 81% 30.00 in 10.0 mi ESE 4.6 mph - N/A   Clear
5:35 AM 44.6 °F 41.4 °F 39.2 °F 81% 30.00 in 10.0 mi ESE 5.8 mph - N/A   Clear
5:55 AM 44.6 °F 41.4 °F 39.2 °F 81% 30.00 in 10.0 mi ESE 5.8 mph - N/A   Clear
6:15 AM 44.6 °F 42.2 °F 39.2 °F 81% 30.00 in 10.0 mi East 4.6 mph - N/A   Clear
6:35 AM 44.6 °F 42.2 °F 39.2 °F 81% 30.02 in 10.0 mi ESE 4.6 mph - N/A   Clear
6:55 AM 44.6 °F 40.7 °F 39.2 °F 81% 30.02 in 10.0 mi East 6.9 mph - N/A   Clear
7:15 AM 44.6 °F 40.7 °F 39.2 °F 81% 30.02 in 10.0 mi East 6.9 mph - N/A   Clear
7:35 AM 44.6 °F 40.7 °F 41.0 °F 87% 30.02 in 10.0 mi East 6.9 mph - N/A   Clear
7:55 AM 46.4 °F 43.5 °F 41.0 °F 81% 30.02 in 10.0 mi East 5.8 mph - N/A   Clear
8:15 AM 50.0 °F - 42.8 °F 76% 30.02 in 10.0 mi East 5.8 mph - N/A   Clear
8:35 AM 51.8 °F - 42.8 °F 71% 30.02 in 10.0 mi East 6.9 mph - N/A   Clear
8:55 AM 51.8 °F - 44.6 °F 76% 30.02 in 10.0 mi East 9.2 mph - N/A   Clear
9:15 AM 53.6 °F - 44.6 °F 72% 30.02 in 10.0 mi East 8.1 mph - N/A   Clear
9:35 AM 55.4 °F - 44.6 °F 67% 30.02 in 10.0 mi East 6.9 mph - N/A   Clear
9:55 AM 57.2 °F - 42.8 °F 59% 30.02 in 10.0 mi East 9.2 mph - N/A   Clear
10:15 AM 59.0 °F - 42.8 °F 55% 30.02 in 10.0 mi ESE 8.1 mph - N/A   Clear
10:35 AM 60.8 °F - 44.6 °F 55% 30.02 in 10.0 mi ESE 6.9 mph - N/A   Clear
10:55 AM 60.8 °F - 42.8 °F 52% 30.02 in 10.0 mi East 6.9 mph - N/A   Clear
11:15 AM 62.6 °F - 42.8 °F 48% 30.01 in 10.0 mi SE 5.8 mph - N/A   Clear
11:35 AM 64.4 °F - 42.8 °F 45% 30.01 in 10.0 mi ESE 4.6 mph - N/A   Clear
11:55 AM 64.4 °F - 42.8 °F 45% 30.01 in 10.0 mi East 3.5 mph - N/A   Clear
12:15 PM 64.4 °F - 41.0 °F 42% 30.01 in 10.0 mi Calm Calm - N/A   Clear
12:35 PM 66.2 °F - 41.0 °F 40% 30.01 in 10.0 mi ESE 3.5 mph - N/A   Clear
12:55 PM 68.0 °F - 41.0 °F 37% 30.00 in 10.0 mi ENE 3.5 mph - N/A   Clear
1:15 PM 68.0 °F - 39.2 °F 35% 30.00 in 10.0 mi ESE 4.6 mph - N/A   Clear
1:35 PM 68.0 °F - 39.2 °F 35% 29.98 in 10.0 mi Calm Calm - N/A   Clear
1:55 PM 68.0 °F - 37.4 °F 33% 29.98 in 10.0 mi Calm Calm - N/A   Clear
2:15 PM 69.8 °F - 37.4 °F 31% 29.97 in 10.0 mi East 4.6 mph - N/A   Clear
2:35 PM 68.0 °F - 37.4 °F 33% 29.97 in 10.0 mi Calm Calm - N/A   Clear
2:55 PM 68.0 °F - 37.4 °F 33% 29.96 in 10.0 mi Calm Calm - N/A   Clear
3:15 PM 69.8 °F - 37.4 °F 31% 29.96 in 10.0 mi Calm Calm - N/A   Clear
3:35 PM 69.8 °F - 37.4 °F 31% 29.96 in 10.0 mi Calm Calm - N/A   Clear
3:55 PM 69.8 °F - 37.4 °F 31% 29.95 in 10.0 mi Calm Calm - N/A   Clear
4:15 PM 68.0 °F - 37.4 °F 33% 29.95 in 10.0 mi Calm Calm - N/A   Clear
4:35 PM 68.0 °F - 39.2 °F 35% 29.94 in 10.0 mi Calm Calm - N/A   Clear
4:55 PM 68.0 °F - 39.2 °F 35% 29.94 in 10.0 mi Calm Calm - N/A   Clear
5:15 PM 68.0 °F - 37.4 °F 33% 29.94 in 10.0 mi Calm Calm - N/A   Clear
5:35 PM 68.0 °F - 37.4 °F 33% 29.94 in 10.0 mi ESE 3.5 mph - N/A   Clear
5:55 PM 64.4 °F - 41.0 °F 42% 29.94 in 10.0 mi ENE 3.5 mph - N/A   Clear
6:15 PM 62.6 °F - 41.0 °F 45% 29.94 in 10.0 mi East 3.5 mph - N/A   Clear
6:35 PM 60.8 °F - 41.0 °F 48% 29.94 in 10.0 mi ESE 3.5 mph - N/A   Clear
7:15 PM 59.0 °F - 41.0 °F 51% 29.94 in 10.0 mi East 4.6 mph - N/A   Clear
7:35 PM 59.0 °F - 41.0 °F 51% 29.94 in 10.0 mi East 3.5 mph - N/A   Clear
7:55 PM 55.4 °F - 41.0 °F 58% 29.95 in 10.0 mi East 4.6 mph - N/A   Clear
8:15 PM 55.4 °F - 41.0 °F 58% 29.95 in 10.0 mi East 4.6 mph - N/A   Clear
8:35 PM 55.4 °F - 41.0 °F 58% 29.95 in 10.0 mi East 4.6 mph - N/A   Clear
8:55 PM 53.6 °F - 41.0 °F 62% 29.95 in 10.0 mi East 5.8 mph - N/A   Clear
9:15 PM 53.6 °F - 41.0 °F 62% 29.95 in 10.0 mi ESE 4.6 mph - N/A   Clear
9:35 PM 55.4 °F - 41.0 °F 58% 29.95 in 10.0 mi SE 4.6 mph - N/A   Clear
9:55 PM 55.4 °F - 41.0 °F 58% 29.95 in 10.0 mi SE 5.8 mph - N/A   Clear
10:15 PM 55.4 °F - 39.2 °F 54% 29.95 in 10.0 mi SE 4.6 mph - N/A   Clear
10:35 PM 55.4 °F - 39.2 °F 54% 29.95 in 10.0 mi SE 4.6 mph - N/A   Clear
10:55 PM 53.6 °F - 39.2 °F 58% 29.95 in 10.0 mi SE 5.8 mph - N/A   Clear
11:15 PM 53.6 °F - 39.2 °F 58% 29.95 in 10.0 mi SE 5.8 mph - N/A   Clear
11:35 PM 53.6 °F - 39.2 °F 58% 29.94 in 10.0 mi SE 5.8 mph - N/A   Clear
11:55 PM 53.6 °F - 39.2 °F 58% 29.94 in 10.0 mi SE 5.8 mph - N/A   Clear